sensor_id;sensor_type;location;lat;lon;timestamp;temperature;humidity
16253;DHT22;8234;41.480;2.306;2023-02-04T00:05:55;9.80;99.90
16253;DHT22;8234;41.480;2.306;2023-02-04T00:16:01;9.40;99.90
16253;DHT22;8234;41.480;2.306;2023-02-04T00:26:05;9.00;99.90
16253;DHT22;8234;41.480;2.306;2023-02-04T00:36:10;8.70;99.90
16253;DHT22;8234;41.480;2.306;2023-02-04T00:46:14;8.90;99.90
16253;DHT22;8234;41.480;2.306;2023-02-04T00:56:19;8.60;99.90
16253;DHT22;8234;41.480;2.306;2023-02-04T01:06:22;8.60;99.90
16253;DHT22;8234;41.480;2.306;2023-02-04T01:16:28;8.40;99.90
16253;DHT22;8234;41.480;2.306;2023-02-04T01:26:32;9.10;99.90
16253;DHT22;8234;41.480;2.306;2023-02-04T01:36:37;9.50;99.90
16253;DHT22;8234;41.480;2.306;2023-02-04T01:46:41;9.50;99.90
16253;DHT22;8234;41.480;2.306;2023-02-04T01:56:47;9.00;99.90
16253;DHT22;8234;41.480;2.306;2023-02-04T02:06:55;8.80;99.90
16253;DHT22;8234;41.480;2.306;2023-02-04T02:17:01;8.50;99.90
16253;DHT22;8234;41.480;2.306;2023-02-04T02:27:08;8.40;99.90
16253;DHT22;8234;41.480;2.306;2023-02-04T02:37:13;8.20;99.90
16253;DHT22;8234;41.480;2.306;2023-02-04T02:47:20;8.10;99.90
16253;DHT22;8234;41.480;2.306;2023-02-04T02:57:25;8.30;99.90
16253;DHT22;8234;41.480;2.306;2023-02-04T03:07:30;9.00;99.90
16253;DHT22;8234;41.480;2.306;2023-02-04T03:17:34;9.10;99.90
16253;DHT22;8234;41.480;2.306;2023-02-04T03:27:39;8.50;99.90
16253;DHT22;8234;41.480;2.306;2023-02-04T03:37:43;8.00;99.90
16253;DHT22;8234;41.480;2.306;2023-02-04T03:47:48;7.90;99.90
16253;DHT22;8234;41.480;2.306;2023-02-04T03:57:52;7.70;99.90
16253;DHT22;8234;41.480;2.306;2023-02-04T04:07:57;7.60;99.90
16253;DHT22;8234;41.480;2.306;2023-02-04T04:18:02;8.30;99.90
16253;DHT22;8234;41.480;2.306;2023-02-04T04:28:08;8.10;99.90
16253;DHT22;8234;41.480;2.306;2023-02-04T04:38:12;8.40;99.90
16253;DHT22;8234;41.480;2.306;2023-02-04T04:48:17;8.80;99.90
16253;DHT22;8234;41.480;2.306;2023-02-04T04:58:22;9.10;99.90
16253;DHT22;8234;41.480;2.306;2023-02-04T05:08:27;9.40;99.90
16253;DHT22;8234;41.480;2.306;2023-02-04T05:18:32;9.40;99.90
16253;DHT22;8234;41.480;2.306;2023-02-04T05:28:37;9.50;99.90
16253;DHT22;8234;41.480;2.306;2023-02-04T05:38:41;10.10;99.90
16253;DHT22;8234;41.480;2.306;2023-02-04T05:48:46;10.00;99.90
16253;DHT22;8234;41.480;2.306;2023-02-04T05:58:50;9.70;99.90
16253;DHT22;8234;41.480;2.306;2023-02-04T06:08:55;9.60;99.90
16253;DHT22;8234;41.480;2.306;2023-02-04T06:18:59;9.30;99.90
16253;DHT22;8234;41.480;2.306;2023-02-04T06:29:05;9.20;99.90
16253;DHT22;8234;41.480;2.306;2023-02-04T06:39:08;8.70;99.90
16253;DHT22;8234;41.480;2.306;2023-02-04T06:49:14;8.80;99.90
16253;DHT22;8234;41.480;2.306;2023-02-04T06:59:18;7.90;99.90
16253;DHT22;8234;41.480;2.306;2023-02-04T07:09:23;7.40;99.90
16253;DHT22;8234;41.480;2.306;2023-02-04T07:19:26;7.20;99.90
16253;DHT22;8234;41.480;2.306;2023-02-04T07:29:32;7.00;99.90
16253;DHT22;8234;41.480;2.306;2023-02-04T07:39:36;7.20;99.90
16253;DHT22;8234;41.480;2.306;2023-02-04T07:49:41;10.10;99.90
16253;DHT22;8234;41.480;2.306;2023-02-04T07:59:45;10.60;99.90
16253;DHT22;8234;41.480;2.306;2023-02-04T08:09:50;11.40;99.90
16253;DHT22;8234;41.480;2.306;2023-02-04T08:19:54;12.50;99.90
16253;DHT22;8234;41.480;2.306;2023-02-04T08:30:00;12.80;99.90
16253;DHT22;8234;41.480;2.306;2023-02-04T08:40:05;13.40;99.90
16253;DHT22;8234;41.480;2.306;2023-02-04T08:50:10;12.80;99.90
16253;DHT22;8234;41.480;2.306;2023-02-04T09:00:15;12.70;99.90
16253;DHT22;8234;41.480;2.306;2023-02-04T09:10:21;12.90;99.90
16253;DHT22;8234;41.480;2.306;2023-02-04T09:20:25;13.50;99.90
16253;DHT22;8234;41.480;2.306;2023-02-04T09:30:32;13.90;99.90
16253;DHT22;8234;41.480;2.306;2023-02-04T09:40:41;14.00;99.90
16253;DHT22;8234;41.480;2.306;2023-02-04T09:50:47;14.10;99.90
16253;DHT22;8234;41.480;2.306;2023-02-04T10:00:57;14.50;99.90
16253;DHT22;8234;41.480;2.306;2023-02-04T10:11:03;15.40;99.90
16253;DHT22;8234;41.480;2.306;2023-02-04T10:21:14;16.50;99.90
16253;DHT22;8234;41.480;2.306;2023-02-04T10:31:31;16.80;99.90
16253;DHT22;8234;41.480;2.306;2023-02-04T10:41:38;17.70;99.90
16253;DHT22;8234;41.480;2.306;2023-02-04T10:51:43;18.00;99.90
16253;DHT22;8234;41.480;2.306;2023-02-04T11:01:47;17.20;99.90
16253;DHT22;8234;41.480;2.306;2023-02-04T11:11:56;17.30;99.90
16253;DHT22;8234;41.480;2.306;2023-02-04T11:22:20;18.90;99.90
16253;DHT22;8234;41.480;2.306;2023-02-04T11:32:34;20.10;99.80
16253;DHT22;8234;41.480;2.306;2023-02-04T11:42:41;20.30;99.80
16253;DHT22;8234;41.480;2.306;2023-02-04T11:52:46;21.30;96.50
16253;DHT22;8234;41.480;2.306;2023-02-04T12:02:54;22.00;97.20
16253;DHT22;8234;41.480;2.306;2023-02-04T12:12:59;21.70;96.80
16253;DHT22;8234;41.480;2.306;2023-02-04T12:23:04;22.30;96.70
16253;DHT22;8234;41.480;2.306;2023-02-04T12:33:11;22.60;93.20
16253;DHT22;8234;41.480;2.306;2023-02-04T12:43:16;24.10;91.40
16253;DHT22;8234;41.480;2.306;2023-02-04T12:53:21;25.70;90.50
16253;DHT22;8234;41.480;2.306;2023-02-04T13:03:25;26.90;89.00
16253;DHT22;8234;41.480;2.306;2023-02-04T13:13:30;27.00;88.60
16253;DHT22;8234;41.480;2.306;2023-02-04T13:23:34;28.10;84.80
16253;DHT22;8234;41.480;2.306;2023-02-04T13:33:40;27.20;77.40
16253;DHT22;8234;41.480;2.306;2023-02-04T13:43:44;27.80;78.50
16253;DHT22;8234;41.480;2.306;2023-02-04T13:53:49;27.70;79.80
16253;DHT22;8234;41.480;2.306;2023-02-04T14:03:53;27.60;92.00
16253;DHT22;8234;41.480;2.306;2023-02-04T14:13:59;28.10;85.60
16253;DHT22;8234;41.480;2.306;2023-02-04T14:24:03;28.30;92.10
16253;DHT22;8234;41.480;2.306;2023-02-04T14:34:08;29.00;91.60
16253;DHT22;8234;41.480;2.306;2023-02-04T14:44:12;25.60;99.00
16253;DHT22;8234;41.480;2.306;2023-02-04T14:54:23;26.00;99.20
16253;DHT22;8234;41.480;2.306;2023-02-04T15:04:28;26.20;98.20
16253;DHT22;8234;41.480;2.306;2023-02-04T15:14:33;25.60;99.90
16253;DHT22;8234;41.480;2.306;2023-02-04T15:24:37;25.60;99.90
16253;DHT22;8234;41.480;2.306;2023-02-04T15:34:42;26.00;99.90
16253;DHT22;8234;41.480;2.306;2023-02-04T15:44:46;24.80;99.90
16253;DHT22;8234;41.480;2.306;2023-02-04T15:54:51;22.60;99.90
16253;DHT22;8234;41.480;2.306;2023-02-04T16:04:56;22.10;99.90
16253;DHT22;8234;41.480;2.306;2023-02-04T16:15:01;22.10;99.90
16253;DHT22;8234;41.480;2.306;2023-02-04T16:25:05;22.60;99.90
16253;DHT22;8234;41.480;2.306;2023-02-04T16:35:11;20.90;99.90
16253;DHT22;8234;41.480;2.306;2023-02-04T16:45:15;19.00;99.90
16253;DHT22;8234;41.480;2.306;2023-02-04T16:55:20;17.40;99.90
16253;DHT22;8234;41.480;2.306;2023-02-04T17:05:27;17.20;99.90
16253;DHT22;8234;41.480;2.306;2023-02-04T17:15:32;16.40;99.90
16253;DHT22;8234;41.480;2.306;2023-02-04T17:25:36;16.10;99.90
16253;DHT22;8234;41.480;2.306;2023-02-04T17:35:41;15.60;99.90
16253;DHT22;8234;41.480;2.306;2023-02-04T17:45:45;15.40;99.90
16253;DHT22;8234;41.480;2.306;2023-02-04T17:55:51;15.60;99.90
16253;DHT22;8234;41.480;2.306;2023-02-04T18:05:56;17.00;99.90
16253;DHT22;8234;41.480;2.306;2023-02-04T18:16:10;17.20;99.70
16253;DHT22;8234;41.480;2.306;2023-02-04T18:26:23;17.50;98.50
16253;DHT22;8234;41.480;2.306;2023-02-04T18:36:31;17.30;98.20
16253;DHT22;8234;41.480;2.306;2023-02-04T18:46:36;17.30;97.70
16253;DHT22;8234;41.480;2.306;2023-02-04T18:56:47;17.10;97.10
16253;DHT22;8234;41.480;2.306;2023-02-04T19:06:53;17.00;96.90
16253;DHT22;8234;41.480;2.306;2023-02-04T19:17:16;17.20;96.70
16253;DHT22;8234;41.480;2.306;2023-02-04T19:27:28;16.90;97.30
16253;DHT22;8234;41.480;2.306;2023-02-04T19:37:39;16.70;97.10
16253;DHT22;8234;41.480;2.306;2023-02-04T19:47:44;16.50;97.20
16253;DHT22;8234;41.480;2.306;2023-02-04T19:57:50;16.40;97.70
16253;DHT22;8234;41.480;2.306;2023-02-04T20:07:55;16.10;98.50
16253;DHT22;8234;41.480;2.306;2023-02-04T20:18:11;16.10;98.50
16253;DHT22;8234;41.480;2.306;2023-02-04T20:28:31;15.50;99.90
16253;DHT22;8234;41.480;2.306;2023-02-04T20:38:38;14.80;99.90
16253;DHT22;8234;41.480;2.306;2023-02-04T20:48:42;14.10;99.90
16253;DHT22;8234;41.480;2.306;2023-02-04T20:58:48;14.20;99.90
16253;DHT22;8234;41.480;2.306;2023-02-04T21:08:53;13.40;99.90
16253;DHT22;8234;41.480;2.306;2023-02-04T21:18:59;13.90;99.90
16253;DHT22;8234;41.480;2.306;2023-02-04T21:29:03;12.70;99.90
16253;DHT22;8234;41.480;2.306;2023-02-04T21:39:08;12.20;99.90
16253;DHT22;8234;41.480;2.306;2023-02-04T21:49:12;11.90;99.90
16253;DHT22;8234;41.480;2.306;2023-02-04T21:59:18;11.30;99.90
16253;DHT22;8234;41.480;2.306;2023-02-04T22:09:23;11.80;99.90
16253;DHT22;8234;41.480;2.306;2023-02-04T22:19:29;11.80;99.90
16253;DHT22;8234;41.480;2.306;2023-02-04T22:29:33;12.00;99.90
16253;DHT22;8234;41.480;2.306;2023-02-04T22:39:38;12.00;99.90
16253;DHT22;8234;41.480;2.306;2023-02-04T22:49:44;12.10;99.90
16253;DHT22;8234;41.480;2.306;2023-02-04T22:59:49;12.10;99.90
16253;DHT22;8234;41.480;2.306;2023-02-04T23:09:53;12.10;99.90
16253;DHT22;8234;41.480;2.306;2023-02-04T23:19:58;12.00;99.90
16253;DHT22;8234;41.480;2.306;2023-02-04T23:30:02;12.10;99.90
16253;DHT22;8234;41.480;2.306;2023-02-04T23:40:09;12.20;99.90
16253;DHT22;8234;41.480;2.306;2023-02-04T23:50:13;12.30;99.90
